Time,TemperatureF,DewpointF,PressureIn,WindDirection,WindDirectionDegrees,WindSpeedMPH,WindSpeedGustMPH,Humidity,HourlyPrecipIn,Conditions,Clouds,dailyrainin,SolarRadiationWatts/m^2,SoftwareType,DateUTC
2013-07-02 00:02:00,55.2,46.0,30.09,NW,315,0.0,0.0,71,0.00,CLR,,0.00,0.0,WeatherDisplay:10.37,2013-07-01 22:02:00,
2013-07-02 00:07:00,55.0,45.8,30.12,NW,315,0.0,0.0,71,0.00,CLR,,0.00,0.0,WeatherDisplay:10.37,2013-07-01 22:07:00,
2013-07-02 00:12:00,55.0,45.8,30.12,NW,315,0.0,0.0,71,0.00,CLR,,0.00,0.0,WeatherDisplay:10.37,2013-07-01 22:12:00,
2013-07-02 00:17:00,54.9,46.0,30.12,NW,315,0.0,0.0,72,0.00,CLR,,0.00,0.0,WeatherDisplay:10.37,2013-07-01 22:17:00,
2013-07-02 00:22:00,54.7,45.8,30.12,NW,315,0.0,0.0,72,0.00,CLR,,0.00,0.0,WeatherDisplay:10.37,2013-07-01 22:22:00,
2013-07-02 00:27:00,54.5,45.7,30.12,NW,315,0.0,0.0,72,0.00,CLR,,0.00,0.0,WeatherDisplay:10.37,2013-07-01 22:27:00,
2013-07-02 00:32:00,54.5,46.0,30.12,NW,315,0.0,0.0,73,0.00,CLR,,0.00,0.0,WeatherDisplay:10.37,2013-07-01 22:32:00,
2013-07-02 00:37:00,54.3,45.8,30.09,NW,315,0.0,0.0,73,0.00,CLR,,0.00,0.0,WeatherDisplay:10.37,2013-07-01 22:37:00,
2013-07-02 00:42:00,54.3,45.8,30.09,NW,315,0.0,0.0,73,0.00,CLR,,0.00,0.0,WeatherDisplay:10.37,2013-07-01 22:42:00,
2013-07-02 00:47:00,54.1,45.7,30.09,NW,315,0.0,0.0,73,0.00,CLR,,0.00,0.0,WeatherDisplay:10.37,2013-07-01 22:47:00,
2013-07-02 00:52:00,54.0,45.5,30.06,NW,315,0.0,0.0,73,0.00,CLR,,0.00,0.0,WeatherDisplay:10.37,2013-07-01 22:52:00,
2013-07-02 00:57:00,54.0,45.5,30.06,NW,315,0.0,0.0,73,0.00,CLR,,0.00,0.0,WeatherDisplay:10.37,2013-07-01 22:57:00,
2013-07-02 01:02:00,53.8,45.3,30.06,NW,315,0.0,0.0,73,0.00,CLR,,0.00,0.0,WeatherDisplay:10.37,2013-07-01 23:02:00,
2013-07-02 01:07:00,53.8,45.7,30.09,NW,315,0.0,0.0,74,0.00,CLR,,0.00,0.0,WeatherDisplay:10.37,2013-07-01 23:07:00,
2013-07-02 01:12:00,53.6,45.5,30.09,NW,315,0.0,0.0,74,0.00,CLR,,0.00,0.0,WeatherDisplay:10.37,2013-07-01 23:12:00,
2013-07-02 01:17:00,53.4,45.7,30.09,NW,315,0.0,0.0,75,0.00,CLR,,0.00,0.0,WeatherDisplay:10.37,2013-07-01 23:17:00,
2013-07-02 01:22:00,53.4,45.7,30.09,NW,315,0.0,0.0,75,0.00,CLR,,0.00,0.0,WeatherDisplay:10.37,2013-07-01 23:22:00,
2013-07-02 01:27:00,53.2,45.5,30.09,NW,315,0.0,0.0,75,0.00,CLR,,0.00,0.0,WeatherDisplay:10.37,2013-07-01 23:27:00,
2013-07-02 01:32:00,53.2,45.5,30.09,NW,315,0.0,0.0,75,0.00,CLR,,0.00,0.0,WeatherDisplay:10.37,2013-07-01 23:32:00,
2013-07-02 01:37:00,53.1,45.3,30.09,NW,315,0.0,0.0,75,0.00,CLR,,0.00,0.0,WeatherDisplay:10.37,2013-07-01 23:37:00,
2013-07-02 01:42:00,53.1,45.3,30.09,NW,315,0.0,0.0,75,0.00,CLR,,0.00,0.0,WeatherDisplay:10.37,2013-07-01 23:42:00,
2013-07-02 01:47:00,52.9,45.2,30.09,NW,315,0.0,0.0,75,0.00,CLR,,0.00,0.0,WeatherDisplay:10.37,2013-07-01 23:47:00,
2013-07-02 01:52:00,52.9,45.5,30.06,NW,315,0.0,0.0,76,0.00,CLR,,0.00,0.0,WeatherDisplay:10.37,2013-07-01 23:52:00,
2013-07-02 01:57:00,52.7,45.3,30.06,NW,315,0.0,0.0,76,0.00,CLR,,0.00,0.0,WeatherDisplay:10.37,2013-07-01 23:57:00,
2013-07-02 02:02:00,52.7,45.7,30.06,NW,315,0.0,0.0,77,0.00,CLR,,0.00,0.0,WeatherDisplay:10.37,2013-07-02 00:02:00,
2013-07-02 02:07:00,52.7,45.7,30.06,NW,315,0.0,0.0,77,0.00,CLR,,0.00,0.0,WeatherDisplay:10.37,2013-07-02 00:07:00,
2013-07-02 02:12:00,52.5,45.5,30.06,NW,315,0.0,0.0,77,0.00,CLR,,0.00,0.0,WeatherDisplay:10.37,2013-07-02 00:12:00,
2013-07-02 12:32:00,75.9,50.5,30.06,ESE,112,5.8,5.8,41,0.00,OVC,,0.00,198.7,WeatherDisplay:10.37,2013-07-02 10:32:00,
2013-07-02 12:33:00,75.9,50.5,30.06,SSE,158,5.8,5.8,41,0.00,OVC,,0.00,198.8,WeatherDisplay:10.37,2013-07-02 10:33:00,
2013-07-02 12:38:00,75.9,50.5,30.06,ESE,112,5.8,5.8,41,0.00,OVC,,0.00,199.2,WeatherDisplay:10.37,2013-07-02 10:38:00,
2013-07-02 12:43:00,75.9,47.0,30.06,SSW,202,6.2,6.2,36,0.00,OVC,,0.00,199.5,WeatherDisplay:10.37,2013-07-02 10:43:00,
2013-07-02 12:48:00,75.9,49.2,30.06,ESE,112,5.8,5.8,39,0.00,OVC,,0.00,199.8,WeatherDisplay:10.37,2013-07-02 10:48:00,
2013-07-02 12:53:00,75.9,50.5,30.06,SSE,158,3.3,3.3,41,0.00,OVC,,0.00,200.0,WeatherDisplay:10.37,2013-07-02 10:53:00,
2013-07-02 17:30:00,82.8,49.9,29.94,ESE,112,3.5,3.5,32,0.00,OVC,,0.00,112.5,WeatherDisplay:10.37,2013-07-02 15:30:00,
2013-07-02 17:35:00,82.2,50.2,29.94,SSW,202,2.3,2.3,33,0.00,OVC,,0.00,110.4,WeatherDisplay:10.37,2013-07-02 15:35:00,
2013-07-02 17:40:00,82.0,50.1,29.94,SSW,202,4.0,4.0,33,0.00,OVC,,0.00,107.1,WeatherDisplay:10.37,2013-07-02 15:40:00,
2013-07-02 17:45:00,81.7,49.8,29.94,SSE,158,4.6,4.6,33,0.00,OVC,,0.00,104.3,WeatherDisplay:10.37,2013-07-02 15:45:00,
2013-07-02 17:50:00,81.5,49.6,29.94,SSW,202,2.6,2.6,33,0.00,OVC,,0.00,101.5,WeatherDisplay:10.37,2013-07-02 15:50:00,
2013-07-02 17:55:00,81.1,50.1,29.94,SSW,202,3.5,3.5,34,0.00,OVC,,0.00,98.7,WeatherDisplay:10.37,2013-07-02 15:55:00,
2013-07-02 18:00:00,80.2,49.3,29.94,ENE,68,1.2,1.2,34,0.00,OVC,,0.00,95.9,WeatherDisplay:10.37,2013-07-02 16:00:00,
2013-07-02 18:05:00,79.5,48.7,29.94,SW,225,5.8,5.8,34,0.00,OVC,,0.00,93.1,WeatherDisplay:10.37,2013-07-02 16:05:00,
2013-07-02 18:10:00,78.8,48.1,29.94,WSW,248,2.3,2.3,34,0.00,OVC,,0.00,90.3,WeatherDisplay:10.37,2013-07-02 16:10:00,
2013-07-02 18:15:00,78.1,48.2,29.94,SSE,158,2.3,2.3,35,0.00,OVC,,0.00,88.1,WeatherDisplay:10.37,2013-07-02 16:15:00,
2013-07-02 18:20:00,77.4,47.6,29.94,SSE,158,4.6,4.6,35,0.00,OVC,,0.00,84.6,WeatherDisplay:10.37,2013-07-02 16:20:00,
2013-07-02 18:25:00,77.0,47.2,29.94,West,270,3.5,3.5,35,0.00,OVC,,0.00,81.8,WeatherDisplay:10.37,2013-07-02 16:25:00,
2013-07-02 18:30:00,76.6,48.4,29.94,ENE,68,3.5,3.5,37,0.00,OVC,,0.00,79.0,WeatherDisplay:10.37,2013-07-02 16:30:00,
2013-07-02 18:35:00,76.3,48.1,29.94,ENE,68,3.5,3.5,37,0.00,OVC,,0.00,76.2,WeatherDisplay:10.37,2013-07-02 16:35:00,
2013-07-02 18:40:00,76.1,47.9,30.00,ESE,112,5.8,5.8,37,0.00,OVC,,0.00,73.6,WeatherDisplay:10.37,2013-07-02 16:40:00,
2013-07-02 18:45:00,75.7,47.6,30.00,ENE,68,3.5,3.5,37,0.00,OVC,,0.00,70.8,WeatherDisplay:10.37,2013-07-02 16:45:00,
2013-07-02 18:50:00,75.6,48.2,30.00,SW,225,4.6,4.6,38,0.00,OVC,,0.00,68.0,WeatherDisplay:10.37,2013-07-02 16:50:00,
2013-07-02 18:55:00,75.4,48.0,29.94,SSW,202,2.3,2.3,38,0.00,OVC,,0.00,65.2,WeatherDisplay:10.37,2013-07-02 16:55:00,
2013-07-02 19:00:00,75.2,48.5,29.94,WSW,248,4.6,4.6,39,0.00,OVC,,0.00,62.5,WeatherDisplay:10.37,2013-07-02 17:00:00,
2013-07-02 19:05:00,74.8,47.5,29.94,ESE,112,2.3,2.3,38,0.00,OVC,,0.00,59.7,WeatherDisplay:10.37,2013-07-02 17:05:00,
2013-07-02 19:10:00,74.7,47.4,29.94,ESE,112,3.6,3.6,38,0.00,OVC,,0.00,57.1,WeatherDisplay:10.37,2013-07-02 17:10:00,
2013-07-02 19:15:00,74.5,47.9,29.94,ESE,112,3.6,3.6,39,0.00,OVC,,0.00,54.3,WeatherDisplay:10.37,2013-07-02 17:15:00,
2013-07-02 19:20:00,74.3,47.7,29.94,SSE,158,3.5,3.5,39,0.00,OVC,,0.00,51.6,WeatherDisplay:10.37,2013-07-02 17:20:00,
2013-07-02 19:25:00,74.3,47.7,29.94,WNW,292,2.9,2.9,39,0.00,OVC,,0.00,49.0,WeatherDisplay:10.37,2013-07-02 17:25:00,
2013-07-02 19:30:00,74.1,48.2,29.94,WSW,248,3.5,3.5,40,0.00,OVC,,0.00,46.4,WeatherDisplay:10.37,2013-07-02 17:30:00,
2013-07-02 19:35:00,73.9,47.4,29.94,ENE,68,2.3,2.3,39,0.00,OVC,,0.00,43.7,WeatherDisplay:10.37,2013-07-02 17:35:00,
2013-07-02 19:40:00,73.8,48.6,29.94,ENE,68,1.2,1.2,41,0.00,OVC,,0.00,41.1,WeatherDisplay:10.37,2013-07-02 17:40:00,
2013-07-02 19:45:00,73.4,48.3,29.94,ESE,112,2.3,2.3,41,0.00,OVC,,0.00,38.6,WeatherDisplay:10.37,2013-07-02 17:45:00,
2013-07-02 19:50:00,73.2,48.1,29.94,ESE,112,2.3,2.3,41,0.00,OVC,,0.00,36.0,WeatherDisplay:10.37,2013-07-02 17:50:00,
2013-07-02 19:55:00,73.0,48.6,29.97,SSW,202,1.2,0.0,42,0.00,OVC,,0.00,34.0,WeatherDisplay:10.37,2013-07-02 17:55:00,
2013-07-02 20:00:00,72.7,48.3,29.97,ESE,112,2.3,2.3,42,0.00,OVC,,0.00,31.0,WeatherDisplay:10.37,2013-07-02 18:00:00,
2013-07-02 20:05:00,72.5,48.1,29.97,SE,135,2.3,2.3,42,0.00,OVC,,0.00,28.5,WeatherDisplay:10.37,2013-07-02 18:05:00,
2013-07-02 20:10:00,72.1,48.4,29.97,ENE,68,2.3,0.0,43,0.00,OVC,,0.00,26.1,WeatherDisplay:10.37,2013-07-02 18:10:00,
2013-07-02 20:15:00,71.8,48.1,29.97,South,180,3.5,3.5,43,0.00,OVC,,0.00,23.6,WeatherDisplay:10.37,2013-07-02 18:15:00,
2013-07-02 20:20:00,71.4,48.4,29.97,WSW,248,0.0,0.0,44,0.00,OVC,,0.00,21.3,WeatherDisplay:10.37,2013-07-02 18:20:00,
2013-07-02 20:25:00,71.1,48.0,29.97,West,270,1.2,0.0,44,0.00,OVC,,0.00,19.0,WeatherDisplay:10.37,2013-07-02 18:25:00,
2013-07-02 20:30:00,70.7,48.3,29.97,SSW,202,1.2,0.0,45,0.00,OVC,,0.00,16.7,WeatherDisplay:10.37,2013-07-02 18:30:00,
2013-07-02 20:35:00,70.3,48.6,29.97,West,270,0.0,0.0,46,0.00,OVC,,0.00,14.4,WeatherDisplay:10.37,2013-07-02 18:35:00,
2013-07-02 20:40:00,70.0,48.2,29.97,ESE,112,0.0,0.0,46,0.00,OVC,,0.00,12.0,WeatherDisplay:10.37,2013-07-02 18:40:00,
2013-07-02 20:45:00,69.6,48.5,29.97,WNW,292,0.0,0.0,47,0.00,OVC,,0.00,9.9,WeatherDisplay:10.37,2013-07-02 18:45:00,
2013-07-02 20:50:00,69.4,48.3,29.97,WSW,248,0.0,0.0,47,0.00,OVC,,0.00,7.8,WeatherDisplay:10.37,2013-07-02 18:50:00,
2013-07-02 20:55:00,68.9,48.4,30.00,WSW,248,0.0,0.0,48,0.00,OVC,,0.00,5.6,WeatherDisplay:10.37,2013-07-02 18:55:00,
2013-07-02 21:00:00,68.4,48.5,30.00,WSW,248,0.0,0.0,49,0.00,CLR,,0.00,0.0,WeatherDisplay:10.37,2013-07-02 19:00:00,
2013-07-02 21:05:00,68.2,48.3,30.00,WSW,248,0.0,0.0,49,0.00,CLR,,0.00,0.0,WeatherDisplay:10.37,2013-07-02 19:05:00,
2013-07-02 21:10:00,67.6,47.8,30.00,WSW,248,0.0,0.0,49,0.00,CLR,,0.00,0.0,WeatherDisplay:10.37,2013-07-02 19:10:00,
2013-07-02 21:15:00,67.3,48.0,30.00,WNW,292,0.0,0.0,50,0.00,CLR,,0.00,0.0,WeatherDisplay:10.37,2013-07-02 19:15:00,
2013-07-02 21:20:00,66.9,47.7,30.00,WNW,292,0.0,0.0,50,0.00,CLR,,0.00,0.0,WeatherDisplay:10.37,2013-07-02 19:20:00,
2013-07-02 21:25:00,66.6,47.9,30.03,WNW,292,0.0,0.0,51,0.00,CLR,,0.00,0.0,WeatherDisplay:10.37,2013-07-02 19:25:00,
2013-07-02 21:30:00,66.2,47.5,30.03,WNW,292,0.0,0.0,51,0.00,CLR,,0.00,0.0,WeatherDisplay:10.37,2013-07-02 19:30:00,
2013-07-02 21:35:00,65.8,47.7,30.03,WNW,292,0.0,0.0,52,0.00,CLR,,0.00,0.0,WeatherDisplay:10.37,2013-07-02 19:35:00,
2013-07-02 21:40:00,65.5,47.9,30.03,ESE,112,0.0,0.0,53,0.00,CLR,,0.00,0.0,WeatherDisplay:10.37,2013-07-02 19:40:00,
2013-07-02 21:45:00,65.1,47.1,30.03,ESE,112,0.0,0.0,52,0.00,CLR,,0.00,0.0,WeatherDisplay:10.37,2013-07-02 19:45:00,
2013-07-02 21:50:00,64.9,47.4,30.03,ESE,112,0.0,0.0,53,0.00,CLR,,0.00,0.0,WeatherDisplay:10.37,2013-07-02 19:50:00,
2013-07-02 21:55:00,64.6,47.6,30.03,ESE,112,0.0,0.0,54,0.00,CLR,,0.00,0.0,WeatherDisplay:10.37,2013-07-02 19:55:00,
2013-07-02 22:00:00,64.2,47.7,30.03,ESE,112,0.0,0.0,55,0.00,CLR,,0.00,0.0,WeatherDisplay:10.37,2013-07-02 20:00:00,
2013-07-02 22:05:00,64.0,47.5,30.03,ESE,112,0.0,0.0,55,0.00,CLR,,0.00,0.0,WeatherDisplay:10.37,2013-07-02 20:05:00,
2013-07-02 22:10:00,63.7,47.7,30.03,ESE,112,0.0,0.0,56,0.00,CLR,,0.00,0.0,WeatherDisplay:10.37,2013-07-02 20:10:00,
2013-07-02 22:15:00,63.5,47.5,30.03,ESE,112,0.0,0.0,56,0.00,CLR,,0.00,0.0,WeatherDisplay:10.37,2013-07-02 20:15:00,
2013-07-02 22:20:00,63.1,47.2,30.03,ESE,112,0.0,0.0,56,0.00,CLR,,0.00,0.0,WeatherDisplay:10.37,2013-07-02 20:20:00,
2013-07-02 22:25:00,63.0,47.5,30.03,ESE,112,0.0,0.0,57,0.00,CLR,,0.00,0.0,WeatherDisplay:10.37,2013-07-02 20:25:00,
2013-07-02 22:30:00,62.6,47.6,30.03,ESE,112,0.0,0.0,58,0.00,CLR,,0.00,0.0,WeatherDisplay:10.37,2013-07-02 20:30:00,
2013-07-02 22:35:00,62.4,47.9,30.03,ESE,112,0.0,0.0,59,0.00,CLR,,0.00,0.0,WeatherDisplay:10.37,2013-07-02 20:35:00,
2013-07-02 22:40:00,62.2,47.7,30.03,ESE,112,0.0,0.0,59,0.00,CLR,,0.00,0.0,WeatherDisplay:10.37,2013-07-02 20:40:00,
2013-07-02 22:45:00,62.1,47.6,30.03,ESE,112,0.0,0.0,59,0.00,CLR,,0.00,0.0,WeatherDisplay:10.37,2013-07-02 20:45:00,
2013-07-02 22:50:00,61.9,47.8,30.03,ESE,112,0.0,0.0,60,0.00,CLR,,0.00,0.0,WeatherDisplay:10.37,2013-07-02 20:50:00,
2013-07-02 22:55:00,61.7,47.7,30.03,ESE,112,0.0,0.0,60,0.00,CLR,,0.00,0.0,WeatherDisplay:10.37,2013-07-02 20:55:00,
2013-07-02 23:00:00,61.3,47.8,30.03,ESE,112,0.0,0.0,61,0.00,CLR,,0.00,0.0,WeatherDisplay:10.37,2013-07-02 21:00:00,
2013-07-02 23:05:00,61.3,47.8,30.03,ESE,112,0.0,0.0,61,0.00,CLR,,0.00,0.0,WeatherDisplay:10.37,2013-07-02 21:05:00,
2013-07-02 23:10:00,61.0,47.9,30.03,ESE,112,0.0,0.0,62,0.00,CLR,,0.00,0.0,WeatherDisplay:10.37,2013-07-02 21:10:00,
2013-07-02 23:15:00,60.8,47.7,30.03,ESE,112,0.0,0.0,62,0.00,CLR,,0.00,0.0,WeatherDisplay:10.37,2013-07-02 21:15:00,
2013-07-02 23:20:00,60.6,47.9,30.03,ESE,112,0.0,0.0,63,0.00,CLR,,0.00,0.0,WeatherDisplay:10.37,2013-07-02 21:20:00,
2013-07-02 23:25:00,60.4,48.2,30.03,ESE,112,0.0,0.0,64,0.00,CLR,,0.00,0.0,WeatherDisplay:10.37,2013-07-02 21:25:00,
2013-07-02 23:30:00,60.3,48.0,30.03,ESE,112,0.0,0.0,64,0.00,CLR,,0.00,0.0,WeatherDisplay:10.37,2013-07-02 21:30:00,
2013-07-02 23:35:00,60.1,47.9,30.03,ESE,112,0.0,0.0,64,0.00,CLR,,0.00,0.0,WeatherDisplay:10.37,2013-07-02 21:35:00,
2013-07-02 23:40:00,59.9,48.1,30.06,ESE,112,0.0,0.0,65,0.00,CLR,,0.00,0.0,WeatherDisplay:10.37,2013-07-02 21:40:00,
2013-07-02 23:45:00,59.7,47.9,30.06,ESE,112,0.0,0.0,65,0.00,CLR,,0.00,0.0,WeatherDisplay:10.37,2013-07-02 21:45:00,
2013-07-02 23:50:00,59.7,47.9,30.06,ESE,112,0.0,0.0,65,0.00,CLR,,0.00,0.0,WeatherDisplay:10.37,2013-07-02 21:50:00,
2013-07-02 23:55:00,59.4,48.0,30.00,ESE,112,0.0,0.0,66,0.00,CLR,,0.00,0.0,WeatherDisplay:10.37,2013-07-02 21:55:00,